Time;durP1;ratioP1;P1;durP2;ratioP2;P2;SDS_P1;SDS_P2;PMS_P1;PMS_P2;Temp;Humidity;BMP_temperature;BMP_pressure;BME280_temperature;BME280_humidity;BME280_pressure;Samples;Min_cycle;Max_cycle;Signal;HPM_P1;HPM_P2
2021/04/19 00:00:00;;;;;;;13.18;11.93;;;10.60;99.90;;;;;;5030833;28;20200;-33
2021/04/19 00:02:28;;;;;;;12.60;11.32;;;10.70;99.90;;;;;;5029930;28;20215;-35
2021/04/19 00:04:55;;;;;;;13.15;11.80;;;10.70;99.90;;;;;;5031065;28;20223;-34
2021/04/19 00:07:22;;;;;;;12.82;11.50;;;10.70;99.90;;;;;;5030697;28;20728;-34
2021/04/19 00:09:49;;;;;;;13.82;11.98;;;10.70;99.90;;;;;;5031264;28;20208;-35
2021/04/19 00:12:16;;;;;;;14.32;12.25;;;10.60;99.90;;;;;;5028997;28;20252;-37
2021/04/19 00:14:42;;;;;;;15.63;12.73;;;10.60;99.90;;;;;;5030555;28;20234;-35
2021/04/19 00:17:09;;;;;;;12.65;11.35;;;10.50;99.90;;;;;;5030279;28;20235;-34
2021/04/19 00:19:35;;;;;;;12.75;11.45;;;10.50;99.90;;;;;;5030403;28;20223;-34
2021/04/19 00:22:03;;;;;;;12.77;11.60;;;10.50;99.90;;;;;;5029919;28;20192;-35
2021/04/19 00:24:30;;;;;;;10.95;9.85;;;10.40;99.90;;;;;;5030409;28;20219;-35
2021/04/19 00:26:57;;;;;;;13.38;12.07;;;10.40;99.90;;;;;;5030111;28;20283;-35
2021/04/19 00:29:24;;;;;;;13.60;12.35;;;10.40;99.90;;;;;;5030171;28;20211;-34
2021/04/19 00:31:51;;;;;;;13.00;11.73;;;10.50;99.90;;;;;;5029473;28;20643;-35
2021/04/19 00:34:17;;;;;;;13.82;12.43;;;10.50;99.90;;;;;;5029742;28;20188;-35
2021/04/19 00:36:44;;;;;;;13.40;12.18;;;10.50;99.90;;;;;;5030243;28;20208;-36
2021/04/19 00:39:12;;;;;;;13.85;12.50;;;10.60;99.90;;;;;;5030040;28;20620;-35
2021/04/19 00:41:39;;;;;;;15.75;13.88;;;10.50;99.90;;;;;;5029747;28;20569;-35
2021/04/19 00:44:06;;;;;;;15.32;13.82;;;10.50;99.90;;;;;;5030000;28;20196;-36
2021/04/19 00:46:33;;;;;;;15.65;13.35;;;10.50;99.90;;;;;;5029985;28;20219;-35
2021/04/19 00:49:00;;;;;;;15.27;13.60;;;10.50;99.90;;;;;;5030200;28;20301;-33
2021/04/19 00:51:28;;;;;;;17.25;14.73;;;10.50;99.90;;;;;;5029808;28;20683;-34
2021/04/19 00:53:54;;;;;;;13.38;12.02;;;10.50;99.90;;;;;;5030008;28;20283;-34
2021/04/19 00:56:22;;;;;;;16.02;14.32;;;10.60;99.90;;;;;;5029798;28;20228;-34
2021/04/19 00:58:49;;;;;;;14.77;13.27;;;10.60;99.90;;;;;;5029609;28;20756;-34
2021/04/19 01:01:16;;;;;;;14.75;12.95;;;10.60;99.90;;;;;;5029533;28;20196;-33
2021/04/19 01:03:44;;;;;;;15.23;13.52;;;10.60;99.90;;;;;;5033717;28;20238;-37
2021/04/19 01:06:13;;;;;;;15.77;14.13;;;10.60;99.90;;;;;;5033432;28;20283;-36
2021/04/19 01:08:40;;;;;;;16.20;13.63;;;10.60;99.90;;;;;;5033864;28;20616;-34
2021/04/19 01:11:07;;;;;;;14.40;12.98;;;10.60;99.90;;;;;;5033724;28;20196;-34
2021/04/19 01:13:36;;;;;;;14.95;13.15;;;10.70;99.90;;;;;;5032636;28;20216;-33
2021/04/19 01:16:03;;;;;;;15.88;14.20;;;10.70;99.90;;;;;;5033615;28;20212;-34
2021/04/19 01:18:30;;;;;;;16.60;14.90;;;10.60;99.90;;;;;;5033327;28;20281;-34
2021/04/19 01:20:59;;;;;;;14.93;13.40;;;10.50;99.90;;;;;;5033615;28;20198;-35
2021/04/19 01:23:27;;;;;;;13.50;12.15;;;10.60;99.90;;;;;;5033402;28;20610;-33
2021/04/19 01:25:55;;;;;;;15.35;13.82;;;10.60;99.90;;;;;;5032692;28;20196;-34
2021/04/19 01:28:22;;;;;;;14.48;13.15;;;10.60;99.90;;;;;;5032699;28;20786;-34
2021/04/19 01:30:52;;;;;;;17.30;14.23;;;10.60;99.90;;;;;;5033212;28;20649;-34
2021/04/19 01:33:20;;;;;;;15.75;14.05;;;10.50;99.90;;;;;;5032056;28;20734;-34
2021/04/19 01:35:47;;;;;;;16.63;14.93;;;10.60;99.90;;;;;;5033489;28;20582;-34
2021/04/19 01:38:19;;;;;;;15.20;13.68;;;10.60;99.90;;;;;;5031507;28;20203;-34
2021/04/19 01:40:49;;;;;;;15.98;14.43;;;10.50;99.90;;;;;;5031207;28;20200;-34
2021/04/19 01:43:16;;;;;;;15.98;14.30;;;10.50;99.90;;;;;;5033345;28;20192;-33
2021/04/19 01:45:48;;;;;;;15.85;14.43;;;10.50;99.90;;;;;;5031981;28;20196;-35
2021/04/19 01:48:15;;;;;;;17.15;15.55;;;10.50;99.90;;;;;;5033309;28;20220;-33
2021/04/19 01:50:43;;;;;;;15.30;13.80;;;10.60;99.90;;;;;;5031725;28;20188;-33
2021/04/19 01:53:13;;;;;;;15.82;14.25;;;10.50;99.90;;;;;;5032561;28;20239;-33
2021/04/19 01:55:43;;;;;;;18.55;16.60;;;10.50;99.90;;;;;;5032417;28;20200;-33
2021/04/19 01:58:14;;;;;;;15.82;14.25;;;10.50;99.90;;;;;;5013971;28;20244;-33
2021/04/19 02:00:47;;;;;;;17.52;15.82;;;10.50;99.90;;;;;;5032534;28;20203;-33
2021/04/19 02:03:34;;;;;;;17.13;15.50;;;10.60;99.90;;;;;;5034033;28;20566;-33
2021/04/19 02:06:06;;;;;;;17.70;15.95;;;10.60;99.90;;;;;;5032099;28;20196;-34
2021/04/19 02:08:44;;;;;;;17.33;15.60;;;10.60;99.90;;;;;;5032605;28;20220;-34
2021/04/19 02:11:24;;;;;;;17.30;15.60;;;10.60;99.90;;;;;;5031343;28;20207;-34
2021/04/19 02:13:58;;;;;;;18.45;16.58;;;10.60;99.90;;;;;;5031463;28;20226;-33
2021/04/19 02:16:33;;;;;;;16.58;15.07;;;10.60;99.90;;;;;;5031738;28;20274;-36
2021/04/19 02:19:07;;;;;;;19.00;17.17;;;10.60;99.90;;;;;;5032239;28;20246;-34
2021/04/19 02:21:40;;;;;;;18.48;16.67;;;10.60;99.90;;;;;;5032320;28;20191;-36
2021/04/19 02:24:11;;;;;;;20.50;17.75;;;10.60;99.90;;;;;;5031154;28;20446;-33
2021/04/19 02:26:45;;;;;;;22.17;19.85;;;10.60;99.90;;;;;;5031158;28;20570;-34
2021/04/19 02:29:16;;;;;;;23.63;21.02;;;10.60;99.90;;;;;;5030875;28;20200;-35
2021/04/19 02:31:49;;;;;;;25.05;20.67;;;10.60;99.90;;;;;;5031843;28;20678;-34
2021/04/19 02:34:19;;;;;;;22.00;19.70;;;10.50;99.90;;;;;;5031208;28;20196;-34
2021/04/19 02:36:49;;;;;;;22.73;20.33;;;10.50;99.90;;;;;;5030707;28;20282;-34
2021/04/19 02:39:17;;;;;;;26.38;23.60;;;10.50;99.90;;;;;;5031069;28;20299;-35
2021/04/19 02:41:50;;;;;;;25.95;23.33;;;10.60;99.90;;;;;;5030155;28;20200;-35
2021/04/19 02:44:20;;;;;;;25.27;22.73;;;10.70;99.90;;;;;;5029844;28;20191;-35
2021/04/19 02:46:58;;;;;;;26.55;23.80;;;10.70;99.90;;;;;;5030402;28;20222;-33
2021/04/19 02:49:29;;;;;;;26.05;23.23;;;10.60;99.90;;;;;;5030396;28;20196;-36
2021/04/19 02:52:00;;;;;;;31.13;24.85;;;10.60;99.90;;;;;;5028772;28;20279;-32
2021/04/19 02:54:27;;;;;;;29.77;26.58;;;10.50;99.90;;;;;;5031686;28;20552;-34
2021/04/19 02:56:55;;;;;;;25.50;22.75;;;10.40;99.90;;;;;;5031854;28;20227;-34
2021/04/19 02:59:24;;;;;;;26.80;24.02;;;10.40;99.90;;;;;;5031439;28;20612;-35
2021/04/19 03:01:57;;;;;;;29.67;26.08;;;10.30;99.90;;;;;;5030586;28;20192;-33
2021/04/19 03:04:31;;;;;;;33.50;27.90;;;10.40;99.90;;;;;;5025138;28;20287;-34
2021/04/19 03:07:10;;;;;;;31.10;27.63;;;10.40;99.90;;;;;;5030558;28;20277;-34
2021/04/19 03:09:43;;;;;;;32.67;27.30;;;10.30;99.90;;;;;;5030336;28;20200;-33
2021/04/19 03:12:15;;;;;;;31.83;27.38;;;10.40;99.90;;;;;;5031172;28;20222;-34
2021/04/19 03:14:54;;;;;;;36.33;31.15;;;10.40;99.90;;;;;;5031536;28;20206;-34
2021/04/19 03:17:25;;;;;;;38.00;31.38;;;10.30;99.90;;;;;;5030333;28;20224;-34
2021/04/19 03:20:15;;;;;;;35.95;29.67;;;10.20;99.90;;;;;;5031416;28;20196;-34
2021/04/19 03:22:57;;;;;;;33.00;26.92;;;10.20;99.90;;;;;;5029781;28;20672;-33
2021/04/19 03:25:29;;;;;;;37.15;28.67;;;10.20;99.90;;;;;;5030412;28;20663;-34
2021/04/19 03:27:59;;;;;;;35.00;29.17;;;10.20;99.90;;;;;;5029362;28;20224;-35
2021/04/19 03:30:26;;;;;;;33.63;29.65;;;10.40;99.90;;;;;;5030015;28;20242;-33
2021/04/19 03:33:04;;;;;;;33.97;27.38;;;10.30;99.90;;;;;;5029557;28;20239;-34
2021/04/19 03:35:33;;;;;;;34.33;30.40;;;10.20;99.90;;;;;;5031713;28;20196;-34
2021/04/19 03:38:05;;;;;;;36.97;28.35;;;10.20;99.90;;;;;;5030733;28;20310;-33
2021/04/19 03:40:34;;;;;;;40.95;31.50;;;10.10;99.90;;;;;;5029460;28;20226;-34
2021/04/19 03:43:10;;;;;;;34.17;28.85;;;10.20;99.90;;;;;;5030974;28;20663;-33
2021/04/19 03:45:45;;;;;;;37.70;31.40;;;10.20;99.90;;;;;;5029671;28;20226;-34
2021/04/19 03:48:32;;;;;;;34.70;27.90;;;10.10;99.90;;;;;;5030483;28;20291;-33
2021/04/19 03:51:15;;;;;;;34.00;28.15;;;10.10;99.90;;;;;;5029644;28;20200;-33
2021/04/19 03:53:49;;;;;;;34.63;29.45;;;10.10;99.90;;;;;;5030516;28;20714;-34
2021/04/19 03:56:20;;;;;;;33.95;29.27;;;10.20;99.90;;;;;;5029675;28;20682;-33
2021/04/19 03:58:58;;;;;;;30.83;27.73;;;10.10;99.90;;;;;;5029316;28;20242;-33
2021/04/19 04:01:30;;;;;;;33.28;27.17;;;10.10;99.90;;;;;;5050888;22;20623;-78
2021/04/19 04:03:59;;;;;;;31.05;27.58;;;10.00;99.90;;;;;;5073005;28;20214;-78
2021/04/19 04:06:36;;;;;;;30.20;25.35;;;10.00;99.90;;;;;;5072433;28;20191;-78
2021/04/19 04:09:07;;;;;;;31.48;26.10;;;10.00;99.90;;;;;;5055365;28;20203;-78
2021/04/19 04:11:36;;;;;;;31.73;26.98;;;10.00;99.90;;;;;;5055591;28;20248;-78
2021/04/19 04:14:20;;;;;;;29.58;26.27;;;10.00;99.90;;;;;;5057135;28;20214;-78
2021/04/19 04:16:47;;;;;;;28.05;25.05;;;10.00;99.90;;;;;;5072684;28;20198;-78
2021/04/19 04:19:17;;;;;;;30.48;27.25;;;9.90;99.90;;;;;;5055706;28;20252;-78
2021/04/19 04:21:58;;;;;;;32.03;26.75;;;9.90;99.90;;;;;;5055708;28;20248;-78
2021/04/19 04:24:40;;;;;;;27.65;24.48;;;9.90;99.90;;;;;;5055144;28;20301;-78
2021/04/19 04:27:09;;;;;;;30.08;26.67;;;9.90;99.90;;;;;;5072129;28;20227;-78
2021/04/19 04:29:38;;;;;;;29.75;24.58;;;10.00;99.90;;;;;;5055424;28;20230;-78
2021/04/19 04:32:31;;;;;;;27.70;24.98;;;10.00;99.90;;;;;;5071539;28;20202;-78
2021/04/19 04:35:11;;;;;;;27.08;23.50;;;10.10;99.90;;;;;;5056310;28;20259;-78
2021/04/19 04:37:40;;;;;;;27.35;24.40;;;10.00;99.90;;;;;;5071878;28;20183;-78
2021/04/19 04:40:16;;;;;;;25.98;23.25;;;10.00;99.90;;;;;;5058381;28;20684;-78
2021/04/19 04:42:49;;;;;;;25.83;22.60;;;9.90;99.90;;;;;;5090872;28;20245;-78
2021/04/19 04:45:17;;;;;;;23.33;21.02;;;9.90;99.90;;;;;;5090416;28;20237;-78
2021/04/19 04:47:52;;;;;;;23.90;21.27;;;10.00;99.90;;;;;;5055597;28;20208;-78
2021/04/19 04:50:24;;;;;;;23.88;20.55;;;9.90;99.90;;;;;;5071719;28;20194;-78
2021/04/19 04:52:55;;;;;;;25.83;22.55;;;9.90;99.90;;;;;;5071139;28;20455;-78
2021/04/19 04:55:24;;;;;;;23.55;20.90;;;9.90;99.90;;;;;;5072433;28;20214;-78
2021/04/19 04:57:51;;;;;;;28.08;24.00;;;9.90;99.90;;;;;;5070956;28;20206;-78
2021/04/19 05:00:21;;;;;;;28.85;24.63;;;10.10;99.90;;;;;;5072348;28;20191;-78
2021/04/19 05:02:49;;;;;;;23.95;21.42;;;10.10;99.90;;;;;;5074081;28;20202;-78
2021/04/19 05:05:17;;;;;;;26.00;23.20;;;10.10;99.90;;;;;;5075971;28;20321;-78
2021/04/19 05:07:45;;;;;;;25.85;22.52;;;10.10;99.90;;;;;;5073777;28;20249;-78
2021/04/19 05:10:12;;;;;;;25.65;22.92;;;10.10;99.90;;;;;;5071586;28;20558;-78
2021/04/19 05:12:40;;;;;;;24.55;22.05;;;10.00;99.90;;;;;;5072181;28;20206;-78
2021/04/19 05:15:09;;;;;;;25.88;21.77;;;10.00;99.90;;;;;;5072282;28;20217;-78
2021/04/19 05:17:37;;;;;;;25.33;22.73;;;9.90;99.90;;;;;;5071491;28;20629;-77
2021/04/19 05:20:05;;;;;;;24.27;21.67;;;10.00;99.90;;;;;;5073180;28;20191;-78
2021/04/19 05:22:32;;;;;;;26.33;22.38;;;10.10;99.90;;;;;;5064234;28;20199;-78
2021/04/19 05:24:59;;;;;;;30.75;24.48;;;10.10;99.90;;;;;;5071825;28;20215;-78
2021/04/19 05:27:27;;;;;;;27.73;24.95;;;10.00;99.90;;;;;;5073171;28;20191;-77
2021/04/19 05:29:55;;;;;;;25.70;22.67;;;9.90;99.90;;;;;;5078337;28;20209;-78
2021/04/19 05:32:22;;;;;;;25.20;21.23;;;9.80;99.90;;;;;;5076440;28;20213;-78
2021/04/19 05:34:50;;;;;;;23.90;21.50;;;9.80;99.90;;;;;;5076901;28;20218;-77
2021/04/19 05:37:17;;;;;;;21.63;19.38;;;9.80;99.90;;;;;;5075991;28;20198;-78
2021/04/19 05:39:45;;;;;;;23.92;20.83;;;9.70;99.90;;;;;;5077441;28;20199;-77
2021/04/19 05:42:13;;;;;;;25.08;22.13;;;9.80;99.90;;;;;;5068943;28;20712;-78
2021/04/19 05:44:41;;;;;;;25.83;23.13;;;9.90;99.90;;;;;;5076575;28;20207;-77
2021/04/19 05:47:09;;;;;;;22.67;20.08;;;9.80;99.90;;;;;;5056516;28;20236;-78
2021/04/19 05:49:35;;;;;;;25.52;20.38;;;9.90;99.90;;;;;;5076796;28;20198;-78
2021/04/19 05:52:05;;;;;;;21.63;19.33;;;9.90;99.90;;;;;;5074348;28;20230;-78
2021/04/19 05:54:34;;;;;;;30.88;25.70;;;9.90;99.90;;;;;;5075479;28;20216;-78
2021/04/19 05:57:16;;;;;;;24.38;21.75;;;9.90;99.90;;;;;;5076226;28;20186;-82
2021/04/19 05:59:51;;;;;;;23.85;21.45;;;9.90;99.90;;;;;;5072370;28;20191;-79
2021/04/19 06:02:29;;;;;;;22.13;18.27;;;10.00;99.90;;;;;;5067060;28;20283;-79
2021/04/19 06:05:02;;;;;;;21.55;19.20;;;9.90;99.90;;;;;;5062047;28;20752;-79
2021/04/19 06:07:40;;;;;;;21.95;19.65;;;10.00;99.90;;;;;;5059488;28;20222;-79
2021/04/19 06:10:31;;;;;;;23.15;18.80;;;10.00;99.90;;;;;;5059768;28;20215;-80
2021/04/19 06:13:07;;;;;;;21.23;19.02;;;10.20;99.90;;;;;;5058308;28;20717;-79
2021/04/19 06:15:34;;;;;;;22.15;19.95;;;10.20;99.90;;;;;;5075048;28;20728;-80
2021/04/19 06:18:01;;;;;;;22.23;19.42;;;10.30;99.90;;;;;;5077418;28;20199;-79
2021/04/19 06:20:29;;;;;;;23.08;20.33;;;10.40;99.90;;;;;;5060613;28;20226;-79
2021/04/19 06:22:57;;;;;;;21.90;18.63;;;10.50;99.90;;;;;;5062523;28;20194;-79
2021/04/19 06:25:24;;;;;;;21.88;19.65;;;10.60;99.90;;;;;;5073450;28;20781;-79
2021/04/19 06:28:05;;;;;;;22.23;17.40;;;10.60;99.90;;;;;;5129267;27;20556;-34
2021/04/19 06:30:40;;;;;;;21.48;18.90;;;10.70;99.90;;;;;;5128919;27;20207;-34
2021/04/19 06:33:09;;;;;;;21.50;19.33;;;10.80;99.90;;;;;;5119635;27;20188;-34
2021/04/19 06:35:36;;;;;;;24.42;19.30;;;10.90;99.90;;;;;;5116624;28;20250;-35
2021/04/19 06:38:03;;;;;;;22.77;19.38;;;11.10;99.90;;;;;;5118640;28;20213;-34
2021/04/19 06:40:30;;;;;;;21.85;19.55;;;11.10;99.90;;;;;;5129122;27;20282;-39
2021/04/19 06:42:57;;;;;;;21.50;19.20;;;11.20;99.90;;;;;;5130027;27;20200;-34
2021/04/19 06:45:25;;;;;;;18.85;16.60;;;11.30;99.90;;;;;;5128358;27;20698;-36
2021/04/19 06:47:53;;;;;;;20.55;17.75;;;11.50;99.90;;;;;;5128602;27;20327;-34
2021/04/19 06:50:21;;;;;;;20.63;18.17;;;11.50;99.90;;;;;;5128924;27;20189;-36
2021/04/19 06:52:47;;;;;;;18.85;16.88;;;11.70;99.90;;;;;;5113944;27;20198;-34
2021/04/19 06:55:18;;;;;;;21.83;16.35;;;11.70;99.90;;;;;;5115192;28;20200;-34
2021/04/19 06:57:48;;;;;;;21.35;19.13;;;11.70;99.90;;;;;;5114237;28;20206;-36
2021/04/19 07:00:16;;;;;;;22.73;18.73;;;11.70;99.90;;;;;;5117959;28;20739;-35
2021/04/19 07:02:49;;;;;;;20.77;18.52;;;11.60;99.90;;;;;;5116043;28;20242;-34
2021/04/19 07:05:22;;;;;;;22.88;20.27;;;11.40;99.90;;;;;;5114988;28;20198;-34
2021/04/19 07:08:02;;;;;;;20.13;18.13;;;11.30;99.90;;;;;;5117008;27;20232;-33
2021/04/19 07:10:29;;;;;;;21.85;18.85;;;11.50;99.90;;;;;;5116967;28;20555;-35
2021/04/19 07:12:58;;;;;;;20.95;18.88;;;11.30;99.90;;;;;;5116596;28;20228;-34
2021/04/19 07:15:27;;;;;;;21.48;17.95;;;11.30;99.90;;;;;;5117074;28;20202;-36
2021/04/19 07:17:54;;;;;;;20.65;18.48;;;11.20;99.90;;;;;;5115697;27;20781;-33
2021/04/19 07:20:21;;;;;;;20.17;18.10;;;11.30;99.90;;;;;;5116974;28;20660;-33
2021/04/19 07:22:48;;;;;;;20.80;18.33;;;11.40;99.90;;;;;;5114393;28;20284;-33
2021/04/19 07:25:15;;;;;;;20.48;18.40;;;11.50;99.90;;;;;;5118306;27;20550;-35
2021/04/19 07:27:42;;;;;;;19.70;17.35;;;11.50;99.90;;;;;;5106073;28;20270;-33
2021/04/19 07:30:10;;;;;;;21.88;18.75;;;11.60;99.90;;;;;;5119025;27;20196;-34
2021/04/19 07:32:39;;;;;;;21.35;19.08;;;11.60;99.90;;;;;;5117144;27;20227;-35
2021/04/19 07:35:09;;;;;;;22.45;20.02;;;11.70;99.90;;;;;;5127856;27;20193;-34
2021/04/19 07:37:36;;;;;;;22.15;19.92;;;11.70;99.90;;;;;;5115300;27;20210;-36
2021/04/19 07:40:05;;;;;;;27.25;20.98;;;11.60;99.90;;;;;;5094071;28;20559;-36
2021/04/19 07:42:36;;;;;;;23.70;20.27;;;11.50;99.90;;;;;;5094419;28;20620;-35
2021/04/19 07:45:04;;;;;;;23.33;19.90;;;11.70;99.90;;;;;;5109496;28;20196;-33
2021/04/19 07:47:35;;;;;;;23.23;20.65;;;11.60;99.90;;;;;;5107039;28;20303;-33
2021/04/19 07:50:10;;;;;;;22.27;19.35;;;11.50;99.90;;;;;;5111938;28;20225;-33
2021/04/19 07:52:54;;;;;;;21.70;19.45;;;11.50;99.90;;;;;;5093504;28;20689;-34
2021/04/19 07:55:22;;;;;;;22.67;19.88;;;11.60;99.90;;;;;;5092415;28;20202;-34
2021/04/19 07:57:50;;;;;;;23.38;19.23;;;11.70;99.90;;;;;;5092108;28;20205;-36
2021/04/19 08:00:30;;;;;;;24.92;20.60;;;11.70;99.90;;;;;;5092431;28;20198;-34
2021/04/19 08:03:02;;;;;;;22.17;19.35;;;11.70;99.90;;;;;;5092844;28;20285;-34
2021/04/19 08:05:38;;;;;;;25.63;20.95;;;11.90;99.90;;;;;;5092526;28;20644;-35
2021/04/19 08:08:07;;;;;;;23.95;21.48;;;12.00;99.90;;;;;;5093360;28;20259;-35
2021/04/19 08:10:33;;;;;;;24.25;21.23;;;12.00;99.90;;;;;;5102002;28;20667;-34
2021/04/19 08:13:03;;;;;;;25.02;21.50;;;12.00;99.90;;;;;;5101836;28;20216;-36
2021/04/19 08:15:31;;;;;;;25.30;22.60;;;12.20;99.90;;;;;;5105963;28;20197;-35
2021/04/19 08:18:06;;;;;;;24.23;21.73;;;12.30;99.90;;;;;;5110282;28;20726;-35
2021/04/19 08:20:35;;;;;;;24.98;22.42;;;12.50;99.90;;;;;;5099328;28;20674;-34
2021/04/19 08:23:10;;;;;;;25.90;23.30;;;12.80;99.90;;;;;;5092872;28;20267;-34
2021/04/19 08:25:46;;;;;;;24.42;22.08;;;13.10;99.90;;;;;;5091648;28;20193;-34
2021/04/19 08:28:15;;;;;;;24.90;22.38;;;12.90;99.90;;;;;;5095033;28;20266;-34
2021/04/19 08:30:43;;;;;;;25.08;21.70;;;12.70;99.90;;;;;;5095763;28;20680;-34
2021/04/19 08:33:11;;;;;;;23.08;20.83;;;12.50;99.90;;;;;;5110426;28;20205;-34
2021/04/19 08:35:40;;;;;;;23.67;21.17;;;12.30;99.90;;;;;;5109190;28;20212;-34
2021/04/19 08:38:07;;;;;;;25.25;20.70;;;12.30;99.90;;;;;;5107116;28;20210;-34
2021/04/19 08:40:36;;;;;;;23.70;21.13;;;12.40;99.90;;;;;;5101091;28;20270;-35
2021/04/19 08:43:07;;;;;;;26.23;22.80;;;12.30;99.90;;;;;;5107999;28;20299;-34
2021/04/19 08:45:34;;;;;;;23.98;20.98;;;12.30;99.90;;;;;;5110661;28;20596;-35
2021/04/19 08:48:01;;;;;;;22.35;20.15;;;12.50;99.90;;;;;;5109203;28;20209;-34
2021/04/19 08:50:28;;;;;;;24.45;20.13;;;12.70;99.90;;;;;;5091687;28;20588;-36
2021/04/19 08:52:57;;;;;;;23.85;21.27;;;12.80;99.90;;;;;;5092232;28;20288;-37
2021/04/19 08:55:24;;;;;;;23.73;19.95;;;12.70;99.90;;;;;;5092055;28;20285;-35
2021/04/19 08:57:52;;;;;;;22.85;20.55;;;12.70;99.90;;;;;;5091330;28;20266;-35
2021/04/19 09:00:23;;;;;;;22.48;20.02;;;12.90;99.90;;;;;;5091398;28;20670;-35
2021/04/19 09:02:50;;;;;;;22.60;20.08;;;13.10;99.90;;;;;;5092206;28;20263;-35
2021/04/19 09:05:18;;;;;;;21.88;19.58;;;13.10;99.90;;;;;;5092107;28;20259;-34
2021/04/19 09:07:46;;;;;;;19.88;17.73;;;13.00;99.90;;;;;;5091501;28;20242;-34
2021/04/19 09:10:16;;;;;;;19.63;17.63;;;13.00;99.90;;;;;;5092002;28;20198;-35
2021/04/19 09:12:44;;;;;;;22.80;20.38;;;13.00;99.90;;;;;;5105685;28;20276;-34
2021/04/19 09:15:17;;;;;;;24.35;21.17;;;13.20;99.90;;;;;;5104961;28;20218;-34
2021/04/19 09:17:58;;;;;;;21.38;19.02;;;13.20;99.90;;;;;;5100827;28;20593;-35
2021/04/19 09:20:33;;;;;;;23.00;20.48;;;13.10;99.90;;;;;;5096696;28;20635;-34
2021/04/19 09:23:18;;;;;;;21.40;18.33;;;13.10;99.90;;;;;;5109213;28;20197;-34
2021/04/19 09:25:46;;;;;;;24.92;21.73;;;13.10;99.90;;;;;;5103168;28;20198;-34
2021/04/19 09:28:13;;;;;;;25.13;21.45;;;12.80;99.90;;;;;;5091894;28;20220;-37
2021/04/19 09:30:45;;;;;;;23.50;21.10;;;12.60;99.90;;;;;;5103326;28;20193;-34
2021/04/19 09:33:22;;;;;;;21.63;17.52;;;12.50;99.90;;;;;;5106386;28;20197;-34
2021/04/19 09:35:49;;;;;;;21.13;18.88;;;12.50;99.90;;;;;;5095608;28;20206;-36
2021/04/19 09:38:51;;;;;;;19.30;17.30;;;12.60;99.90;;;;;;5107872;28;20205;-36
2021/04/19 09:41:21;;;;;;;19.63;17.48;;;12.60;99.90;;;;;;5097449;28;20626;-34
2021/04/19 09:43:53;;;;;;;19.95;17.85;;;12.70;99.90;;;;;;5097271;28;20716;-34
2021/04/19 09:46:28;;;;;;;21.98;19.75;;;13.00;99.90;;;;;;5105315;28;20221;-34
2021/04/19 09:49:13;;;;;;;24.33;20.00;;;13.40;99.90;;;;;;5111125;28;20205;-34
2021/04/19 09:51:43;;;;;;;19.08;17.17;;;13.90;99.90;;;;;;5111353;28;20660;-35
2021/04/19 09:54:12;;;;;;;20.35;18.25;;;13.90;99.90;;;;;;5111359;28;20204;-35
2021/04/19 09:56:41;;;;;;;20.83;17.10;;;13.90;99.90;;;;;;5111168;28;20205;-34
2021/04/19 09:59:10;;;;;;;20.75;17.45;;;13.80;99.90;;;;;;5110691;28;20743;-36
2021/04/19 10:01:38;;;;;;;18.98;16.48;;;14.00;99.90;;;;;;5110785;28;20212;-35
2021/04/19 10:04:05;;;;;;;19.88;17.70;;;14.20;99.90;;;;;;5111171;28;20228;-35
2021/04/19 10:06:38;;;;;;;17.65;15.65;;;14.50;99.90;;;;;;5111605;28;20217;-34
2021/04/19 10:09:09;;;;;;;15.95;14.35;;;14.70;99.90;;;;;;5111543;28;20204;-36
2021/04/19 10:11:42;;;;;;;16.10;14.45;;;14.70;99.90;;;;;;5102936;28;20229;-35
2021/04/19 10:14:10;;;;;;;21.05;18.85;;;14.50;99.90;;;;;;5103330;28;20205;-34
2021/04/19 10:16:45;;;;;;;25.63;22.00;;;14.50;99.90;;;;;;5102444;28;20209;-35
2021/04/19 10:19:12;;;;;;;19.55;17.45;;;14.60;99.90;;;;;;5091512;28;20212;-36
2021/04/19 10:21:38;;;;;;;16.50;14.95;;;14.60;99.90;;;;;;5095486;28;20200;-34
2021/04/19 10:24:14;;;;;;;18.55;16.65;;;14.30;99.90;;;;;;5100168;28;20435;-35
2021/04/19 10:26:42;;;;;;;16.95;15.25;;;14.30;99.90;;;;;;5108571;28;20224;-34
2021/04/19 10:29:11;;;;;;;17.67;15.98;;;14.30;99.90;;;;;;5109372;28;20193;-34
2021/04/19 10:31:45;;;;;;;21.05;16.98;;;14.40;99.90;;;;;;5093124;28;20686;-36
2021/04/19 10:34:12;;;;;;;21.67;19.25;;;14.40;99.90;;;;;;5101378;28;20293;-35
2021/04/19 10:36:44;;;;;;;23.23;20.75;;;14.20;99.90;;;;;;5094148;28;20285;-35
2021/04/19 10:39:13;;;;;;;21.40;19.00;;;14.00;99.90;;;;;;5101399;28;20272;-34
2021/04/19 10:41:40;;;;;;;25.38;22.75;;;13.80;99.90;;;;;;5106879;28;20269;-34
2021/04/19 10:44:09;;;;;;;23.25;20.85;;;13.80;99.90;;;;;;5099764;28;20199;-34
2021/04/19 10:46:38;;;;;;;24.65;22.02;;;13.90;99.90;;;;;;5110892;28;20205;-34
2021/04/19 10:49:06;;;;;;;20.17;18.15;;;13.80;99.90;;;;;;5097437;28;20190;-33
2021/04/19 10:51:35;;;;;;;21.42;19.25;;;14.10;99.90;;;;;;5089993;28;20198;-34
2021/04/19 10:54:04;;;;;;;18.58;16.63;;;14.20;99.90;;;;;;5095643;28;20315;-36
2021/04/19 10:56:31;;;;;;;20.02;17.92;;;14.20;99.90;;;;;;5110202;28;20217;-34
2021/04/19 10:59:01;;;;;;;18.00;16.27;;;14.30;99.90;;;;;;5110216;28;20292;-34
2021/04/19 11:01:31;;;;;;;19.38;17.38;;;14.50;99.90;;;;;;5095539;28;20349;-34
2021/04/19 11:03:58;;;;;;;20.90;18.60;;;14.60;99.90;;;;;;5090645;28;20205;-33
2021/04/19 11:06:25;;;;;;;18.33;16.38;;;14.80;99.90;;;;;;5103644;28;20761;-35
2021/04/19 11:08:54;;;;;;;20.00;17.95;;;14.80;99.90;;;;;;5099698;28;20196;-33
2021/04/19 11:11:29;;;;;;;19.30;17.10;;;15.00;99.90;;;;;;5104920;28;20186;-35
2021/04/19 11:14:18;;;;;;;18.00;16.17;;;15.30;99.90;;;;;;5106764;28;20266;-34
2021/04/19 11:16:53;;;;;;;18.30;16.42;;;15.50;99.90;;;;;;5101961;28;20228;-34
2021/04/19 11:19:40;;;;;;;16.60;14.98;;;15.60;99.90;;;;;;5108986;28;20197;-34
2021/04/19 11:22:34;;;;;;;14.65;13.27;;;15.60;99.90;;;;;;5107987;28;20450;-34
2021/04/19 11:25:12;;;;;;;16.13;14.55;;;15.50;99.90;;;;;;5070334;28;20213;-35
2021/04/19 11:27:39;;;;;;;16.80;14.90;;;15.40;99.90;;;;;;5105659;28;20223;-33
2021/04/19 11:30:18;;;;;;;14.95;13.40;;;15.30;99.90;;;;;;5109762;28;20189;-33
2021/04/19 11:32:46;;;;;;;17.95;15.88;;;15.40;99.90;;;;;;5104645;28;20205;-35
2021/04/19 11:35:24;;;;;;;16.08;14.38;;;15.60;99.90;;;;;;5110376;28;20193;-33
2021/04/19 11:37:59;;;;;;;16.60;14.85;;;15.70;99.90;;;;;;5100978;28;20214;-34
2021/04/19 11:40:28;;;;;;;17.95;15.15;;;15.60;99.90;;;;;;5101849;28;20197;-35
2021/04/19 11:42:54;;;;;;;15.77;14.18;;;15.40;99.90;;;;;;5102481;28;20667;-35
2021/04/19 11:45:22;;;;;;;21.30;19.08;;;15.20;99.90;;;;;;5103333;28;20679;-34
2021/04/19 11:47:50;;;;;;;25.10;21.35;;;15.10;99.90;;;;;;5098107;28;20683;-35
2021/04/19 11:50:18;;;;;;;15.13;13.50;;;15.30;99.90;;;;;;5109714;28;20198;-34
2021/04/19 11:52:47;;;;;;;17.38;15.57;;;15.50;99.90;;;;;;5104731;28;20732;-34
2021/04/19 11:55:15;;;;;;;17.17;15.52;;;15.90;99.90;;;;;;5104266;28;20281;-34
2021/04/19 11:57:42;;;;;;;17.65;15.95;;;16.30;99.90;;;;;;5112204;27;20280;-34
2021/04/19 12:00:10;;;;;;;18.52;16.33;;;16.50;99.90;;;;;;5111474;28;20203;-33
2021/04/19 12:02:41;;;;;;;16.63;14.93;;;17.00;99.90;;;;;;5110620;28;20190;-36
2021/04/19 12:05:10;;;;;;;15.57;14.18;;;17.20;99.90;;;;;;5109703;28;20259;-34
2021/04/19 12:07:37;;;;;;;18.88;16.98;;;17.30;99.90;;;;;;5109722;28;20251;-36
2021/04/19 12:10:05;;;;;;;16.80;15.18;;;17.60;99.90;;;;;;5111483;27;20229;-34
2021/04/19 12:12:32;;;;;;;18.08;16.25;;;17.90;99.90;;;;;;5112995;28;20186;-35
2021/04/19 12:14:58;;;;;;;17.27;14.90;;;18.20;99.90;;;;;;5110207;28;20699;-35
2021/04/19 12:17:25;;;;;;;18.77;16.23;;;18.20;99.90;;;;;;5113235;28;20217;-35
2021/04/19 12:19:51;;;;;;;18.63;16.40;;;18.30;99.90;;;;;;5113128;28;20212;-34
2021/04/19 12:22:19;;;;;;;17.42;14.65;;;18.50;99.90;;;;;;5112404;28;20189;-34
2021/04/19 12:24:46;;;;;;;17.23;15.48;;;18.80;99.90;;;;;;5113127;28;20241;-34
2021/04/19 12:27:13;;;;;;;18.42;16.50;;;19.10;99.90;;;;;;5112419;28;20220;-37
2021/04/19 12:29:40;;;;;;;18.17;16.27;;;19.40;99.90;;;;;;5112742;28;20197;-34
2021/04/19 12:32:07;;;;;;;17.75;16.05;;;19.10;99.90;;;;;;5111931;27;20208;-34
2021/04/19 12:34:33;;;;;;;20.67;17.33;;;18.60;99.90;;;;;;5110551;28;20280;-35
2021/04/19 12:37:00;;;;;;;21.90;16.13;;;18.80;99.90;;;;;;5112807;28;20233;-34
2021/04/19 12:39:27;;;;;;;18.05;14.88;;;18.80;99.90;;;;;;5095929;22;20227;-35
2021/04/19 12:41:54;;;;;;;23.10;20.52;;;18.70;99.90;;;;;;5031145;28;20271;-35
2021/04/19 12:44:24;;;;;;;18.70;16.88;;;18.30;99.90;;;;;;5031362;28;20204;-35